createdAt,value
2022-09-02T00:26:31.067Z,4.32
2022-09-02T00:39:12.465Z,5.75
2022-09-02T00:44:26.322Z,6.38
2022-09-02T00:50:11.328Z,3.70
2022-09-02T00:55:46.160Z,3.63
2022-09-02T01:01:21.476Z,3.95
2022-09-02T01:07:01.831Z,8.37
2022-09-02T01:12:29.999Z,15.13
2022-09-02T01:18:25.937Z,12.93
2022-09-02T01:23:46.587Z,9.27
2022-09-02T01:29:17.568Z,6.80
2022-09-02T01:34:58.023Z,4.93
2022-09-02T01:45:30.758Z,4.75
2022-09-02T01:50:36.038Z,3.65
2022-09-02T01:55:49.183Z,5.15
2022-09-02T02:01:03.533Z,6.25
2022-09-02T02:06:13.806Z,6.50
2022-09-02T02:11:27.472Z,3.90
2022-09-02T02:16:34.435Z,3.13
2022-09-02T02:21:37.506Z,2.80
2022-09-02T02:26:39.784Z,4.60
2022-09-02T02:31:46.593Z,5.43
2022-09-02T02:36:53.654Z,18.98
2022-09-02T02:41:59.870Z,33.55
2022-09-02T02:47:06.432Z,52.15
2022-09-02T02:52:33.796Z,69.80
2022-09-02T02:57:40.542Z,35.50
2022-09-02T03:03:03.888Z,69.57
2022-09-02T03:08:14.427Z,96.07
2022-09-02T03:13:19.282Z,76.55
2022-09-02T03:18:23.566Z,65.05
2022-09-02T03:23:58.520Z,41.15
2022-09-02T03:29:06.205Z,28.17
2022-09-02T03:34:19.987Z,27.27
2022-09-02T03:39:47.371Z,24.95
2022-09-02T03:45:16.177Z,20.90
2022-09-02T03:50:34.835Z,19.48
2022-09-02T03:55:40.647Z,18.23
2022-09-02T04:00:53.247Z,15.30
2022-09-02T04:06:32.897Z,18.17
2022-09-02T04:11:47.308Z,17.33
2022-09-02T04:16:50.524Z,20.50
2022-09-02T04:22:16.582Z,21.92
2022-09-02T04:27:29.722Z,22.42
2022-09-02T04:32:40.688Z,18.67
2022-09-02T04:37:48.133Z,15.00
2022-09-02T04:42:55.427Z,18.15
2022-09-02T04:48:21.419Z,17.92
2022-09-02T04:53:25.851Z,21.63
2022-09-02T04:58:30.158Z,20.27
2022-09-02T05:03:35.508Z,23.35
2022-09-02T05:08:37.982Z,15.05
2022-09-02T05:19:55.538Z,11.38
2022-09-02T05:25:00.858Z,10.30
2022-09-02T05:31:00.419Z,11.25
2022-09-02T05:36:55.807Z,13.60
2022-09-02T05:42:12.013Z,9.20
2022-09-02T05:47:18.687Z,7.83
2022-09-02T05:52:30.439Z,7.80
2022-09-02T05:57:58.455Z,7.20
2022-09-02T06:09:35.062Z,9.13
2022-09-02T06:20:52.319Z,9.20
2022-09-02T06:32:39.513Z,3.20
2022-09-02T06:37:48.695Z,4.80
2022-09-02T06:43:07.429Z,3.17
2022-09-02T06:48:30.510Z,2.45
2022-09-02T06:53:36.274Z,2.60
2022-09-02T07:05:14.264Z,3.50
2022-09-02T07:10:27.447Z,2.40
2022-09-02T07:15:50.425Z,3.30
2022-09-02T07:20:57.583Z,3.42
2022-09-02T07:26:18.352Z,2.55
2022-09-02T07:31:31.131Z,1.92
2022-09-02T07:36:40.927Z,2.03
2022-09-02T07:41:50.220Z,2.03
2022-09-02T07:46:55.648Z,2.30
2022-09-02T07:52:01.309Z,2.47
2022-09-02T07:57:04.956Z,2.38
2022-09-02T08:02:41.170Z,1.63
2022-09-02T08:08:24.179Z,2.70
2022-09-02T08:14:07.879Z,0.95
2022-09-02T08:19:44.299Z,1.98
2022-09-02T08:25:07.770Z,2.78
2022-09-02T08:30:41.864Z,1.92
2022-09-02T08:36:56.427Z,1.50
2022-09-02T08:42:46.202Z,2.03
2022-09-02T08:48:18.780Z,1.42
2022-09-02T08:54:27.097Z,1.15
2022-09-02T08:59:45.551Z,0.75
2022-09-02T09:05:23.828Z,1.15
2022-09-02T09:11:03.579Z,1.52
2022-09-02T09:16:24.510Z,0.70
2022-09-02T09:21:30.425Z,2.27
2022-09-02T09:26:34.932Z,0.50
2022-09-02T09:31:38.898Z,1.52
2022-09-02T09:36:48.657Z,2.40
2022-09-02T09:41:54.882Z,2.35
2022-09-02T09:47:04.829Z,1.25
2022-09-02T09:52:09.959Z,2.50
2022-09-02T09:57:21.568Z,1.33
2022-09-02T10:02:26.603Z,0.95
2022-09-02T10:07:41.356Z,1.35
2022-09-02T10:12:50.150Z,2.78
2022-09-02T10:18:14.799Z,1.10
2022-09-02T10:23:39.334Z,0.75
2022-09-02T10:29:03.965Z,1.70
2022-09-02T10:34:31.569Z,0.65
2022-09-02T10:39:46.132Z,3.38
2022-09-02T10:45:05.158Z,2.75
2022-09-02T10:50:11.371Z,1.27
2022-09-02T10:55:31.355Z,2.17
2022-09-02T11:01:05.982Z,0.70
2022-09-02T11:06:51.738Z,1.75
2022-09-02T11:12:05.441Z,3.47
2022-09-02T11:17:47.624Z,1.40
2022-09-02T11:22:55.418Z,2.40
2022-09-02T11:28:29.105Z,0.85
2022-09-02T11:33:46.357Z,1.63
2022-09-02T11:38:58.518Z,0.85
2022-09-02T11:44:25.906Z,2.83
2022-09-02T11:50:04.682Z,2.72
2022-09-02T11:55:25.444Z,1.05
2022-09-02T12:00:32.549Z,1.20
2022-09-02T12:05:35.356Z,1.67
2022-09-02T12:10:43.802Z,2.40
2022-09-02T12:16:21.418Z,1.08
2022-09-02T12:21:28.583Z,0.98
2022-09-02T12:26:50.782Z,1.10
2022-09-02T12:31:59.665Z,3.10
2022-09-02T12:37:03.125Z,2.70
2022-09-02T12:42:11.990Z,4.65
2022-09-02T12:47:24.758Z,1.23
2022-09-02T12:53:06.701Z,2.38
2022-09-02T12:58:16.730Z,1.20
2022-09-02T13:03:31.031Z,2.67
2022-09-02T13:08:51.266Z,0.70
2022-09-02T13:14:05.396Z,1.52
2022-09-02T13:19:17.304Z,1.30
2022-09-02T13:24:45.823Z,0.90
2022-09-02T13:30:08.598Z,2.70
2022-09-02T13:35:27.693Z,1.00
2022-09-02T13:40:35.644Z,1.90
2022-09-02T13:45:38.195Z,4.38
2022-09-02T13:50:45.558Z,3.13
2022-09-02T13:55:53.321Z,1.88
2022-09-02T14:01:01.971Z,2.33
2022-09-02T14:06:10.600Z,1.50
2022-09-02T14:11:17.238Z,3.65
2022-09-02T14:16:59.550Z,1.88
2022-09-02T14:22:02.524Z,2.15
2022-09-02T14:27:16.709Z,1.27
2022-09-02T14:32:28.030Z,4.22
2022-09-02T14:37:32.816Z,1.77
2022-09-02T14:42:53.746Z,2.22
2022-09-02T14:48:02.099Z,2.97
2022-09-02T14:53:07.244Z,3.67
2022-09-02T14:58:09.484Z,1.60
2022-09-02T15:03:17.258Z,2.50
2022-09-02T15:08:19.849Z,1.88
2022-09-02T15:13:27.155Z,1.73
2022-09-02T15:18:29.495Z,2.28
2022-09-02T15:23:34.774Z,1.87
2022-09-02T15:28:38.705Z,1.25
2022-09-02T15:33:42.055Z,1.33
2022-09-02T15:38:45.719Z,1.73
2022-09-02T15:43:48.696Z,2.38
2022-09-02T15:48:51.529Z,3.15
2022-09-02T15:54:01.877Z,3.10
2022-09-02T15:59:16.391Z,1.67
2022-09-02T16:04:43.241Z,2.17
2022-09-02T16:09:51.301Z,2.95
2022-09-02T16:14:58.424Z,3.05
2022-09-02T16:20:11.824Z,4.15
2022-09-02T16:25:17.011Z,1.60
2022-09-02T16:30:19.923Z,4.18
2022-09-02T16:35:45.580Z,1.75
2022-09-02T16:41:38.002Z,3.08
2022-09-02T16:46:40.952Z,6.07
2022-09-02T16:51:43.369Z,8.45
2022-09-02T16:56:48.777Z,11.40
2022-09-02T17:01:57.673Z,7.57
2022-09-02T17:07:06.388Z,5.80
2022-09-02T17:12:09.698Z,5.18
2022-09-02T17:17:26.447Z,12.02
2022-09-02T17:22:35.193Z,15.18
2022-09-02T17:27:49.423Z,9.73
2022-09-02T17:32:57.852Z,3.47
2022-09-02T17:38:03.477Z,2.33
2022-09-02T17:43:10.374Z,4.35
2022-09-02T17:49:05.776Z,4.38
2022-09-02T17:54:08.078Z,6.05
2022-09-02T17:59:52.543Z,6.78
2022-09-02T18:05:29.261Z,14.20
2022-09-02T18:10:47.524Z,12.35
2022-09-02T18:16:23.321Z,11.73
2022-09-02T18:22:07.188Z,7.35
2022-09-02T18:27:25.419Z,4.97
2022-09-02T18:33:23.090Z,2.90
2022-09-02T18:38:39.997Z,3.92
2022-09-02T18:44:10.295Z,2.95
2022-09-02T18:49:22.007Z,3.83
2022-09-02T18:54:35.104Z,4.87
2022-09-02T19:00:15.025Z,3.58
2022-09-02T19:05:21.884Z,4.07
2022-09-02T19:10:25.724Z,5.93
2022-09-02T19:15:49.378Z,7.15
2022-09-02T19:20:55.473Z,7.82
2022-09-02T19:26:24.837Z,7.40
2022-09-02T19:31:30.504Z,4.95
2022-09-02T19:36:34.039Z,4.15
2022-09-02T19:41:39.710Z,3.35
2022-09-02T19:47:20.956Z,4.78
2022-09-02T19:52:07.525Z,4.25
2022-09-02T19:57:31.099Z,4.75
2022-09-02T20:13:41.420Z,5.07
2022-09-02T20:19:46.427Z,6.28
2022-09-02T20:25:41.366Z,6.07
2022-09-02T20:30:50.714Z,3.95
2022-09-02T20:36:08.418Z,6.10
2022-09-02T20:41:29.377Z,4.38
2022-09-02T20:46:57.229Z,5.15
2022-09-02T20:52:17.549Z,3.90
2022-09-02T20:57:50.642Z,5.55
2022-09-02T21:02:58.513Z,5.82
2022-09-02T21:08:44.448Z,5.82
2022-09-02T21:14:20.325Z,6.50
2022-09-02T21:19:31.544Z,6.78
2022-09-02T21:24:51.516Z,4.20
2022-09-02T21:30:18.910Z,5.55
2022-09-02T21:35:24.563Z,3.97
2022-09-02T21:40:38.637Z,4.90
2022-09-02T21:46:12.530Z,4.35
2022-09-02T21:51:49.138Z,7.00
2022-09-02T21:56:58.980Z,7.57
2022-09-02T22:02:06.382Z,6.82
2022-09-02T22:07:20.178Z,6.18
2022-09-02T22:12:26.394Z,5.38
2022-09-02T22:17:44.168Z,4.97
2022-09-02T22:22:53.414Z,7.07
2022-09-02T22:28:04.544Z,5.63
2022-09-02T22:33:11.915Z,4.53
2022-09-02T22:38:25.113Z,7.30
2022-09-02T22:43:41.663Z,6.72
2022-09-02T22:49:15.190Z,7.20
2022-09-02T22:54:17.769Z,8.45
2022-09-02T22:59:39.315Z,9.23
2022-09-02T23:05:08.402Z,7.23
2022-09-02T23:10:18.837Z,8.50
2022-09-02T23:15:43.409Z,6.25
2022-09-02T23:20:59.143Z,6.65
2022-09-02T23:26:32.818Z,8.40
2022-09-02T23:31:59.900Z,7.47
2022-09-02T23:37:41.016Z,6.57
2022-09-02T23:42:43.866Z,7.18
2022-09-02T23:47:55.321Z,6.43
2022-09-02T23:53:11.867Z,5.63
2022-09-02T23:58:24.969Z,7.22
